Time;durP1;ratioP1;P1;durP2;ratioP2;P2;SDS_P1;SDS_P2;PMS_P1;PMS_P2;Temp;Humidity;BMP_temperature;BMP_pressure;BME280_temperature;BME280_humidity;BME280_pressure;Samples;Min_cycle;Max_cycle;Signal;HPM_P1;HPM_P2
2022/08/23 00:02:19;;;;;;;3.90;2.80;;;22.80;99.90;;;;;;6193421;28;89106;-64
2022/08/23 00:05:23;;;;;;;3.00;2.80;;;22.80;99.90;;;;;;6185206;28;88057;-64
2022/08/23 00:08:25;;;;;;;3.10;2.90;;;22.80;99.90;;;;;;6196389;28;88149;-64
2022/08/23 00:11:29;;;;;;;4.15;3.15;;;22.80;99.90;;;;;;6183423;28;88086;-64
2022/08/23 00:14:35;;;;;;;2.80;2.60;;;22.80;99.90;;;;;;6198258;28;89079;-64
2022/08/23 00:17:37;;;;;;;2.80;2.60;;;22.80;99.90;;;;;;6200546;28;89033;-64
2022/08/23 00:20:41;;;;;;;2.97;2.65;;;22.80;99.90;;;;;;6198424;28;88259;-64
2022/08/23 00:23:43;;;;;;;3.25;2.80;;;22.80;99.90;;;;;;6205366;28;89246;-64
2022/08/23 00:26:57;;;;;;;2.85;2.63;;;22.80;99.90;;;;;;6188832;28;89387;-64
2022/08/23 00:30:00;;;;;;;2.60;2.40;;;22.70;99.90;;;;;;6192096;28;89936;-64
2022/08/23 00:33:02;;;;;;;2.80;2.60;;;22.70;99.90;;;;;;6203568;28;89052;-65
2022/08/23 00:36:06;;;;;;;3.10;2.67;;;22.70;99.90;;;;;;6182423;28;89249;-64
2022/08/23 00:39:08;;;;;;;2.72;2.53;;;22.70;99.90;;;;;;6182814;28;89005;-64
2022/08/23 00:48:56;;;;;;;3.30;3.00;;;22.70;99.90;;;;;;6205708;28;87714;-64
2022/08/23 00:52:06;;;;;;;2.78;2.53;;;22.80;99.90;;;;;;6189901;28;88364;-64
2022/08/23 00:55:08;;;;;;;2.60;2.40;;;22.70;99.90;;;;;;6193949;28;90319;-64
2022/08/23 00:58:12;;;;;;;3.63;2.70;;;22.70;99.90;;;;;;6205598;28;89139;-64
2022/08/23 01:01:17;;;;;;;3.45;2.50;;;22.70;99.90;;;;;;6204529;28;89552;-64
2022/08/23 01:04:20;;;;;;;3.05;2.75;;;22.80;99.90;;;;;;6201968;28;88972;-64
2022/08/23 01:07:33;;;;;;;2.92;2.60;;;22.80;99.90;;;;;;6205861;28;89072;-64
2022/08/23 01:10:39;;;;;;;3.22;2.65;;;22.70;99.90;;;;;;6203397;28;88656;-64
2022/08/23 01:13:47;;;;;;;2.70;2.50;;;22.70;99.90;;;;;;6192975;28;89115;-64
2022/08/23 01:16:53;;;;;;;2.63;2.42;;;22.70;99.90;;;;;;6193820;28;89120;-64
2022/08/23 01:19:58;;;;;;;3.03;2.72;;;22.70;99.90;;;;;;6187717;28;87990;-65
2022/08/23 01:23:06;;;;;;;3.42;2.60;;;22.70;99.90;;;;;;6203781;28;87127;-64
2022/08/23 01:26:11;;;;;;;3.00;2.72;;;22.70;99.90;;;;;;6186410;28;89343;-64
2022/08/23 01:29:15;;;;;;;3.85;2.63;;;22.70;99.90;;;;;;6193306;28;89006;-64
2022/08/23 01:32:17;;;;;;;2.78;2.58;;;22.70;99.90;;;;;;6192162;28;88465;-65
2022/08/23 01:35:22;;;;;;;2.78;2.42;;;22.70;99.90;;;;;;6189203;28;89109;-65
2022/08/23 01:38:26;;;;;;;2.88;2.53;;;22.70;99.90;;;;;;6196147;28;89331;-64
2022/08/23 01:41:30;;;;;;;2.55;2.35;;;22.70;99.90;;;;;;6181645;28;88148;-64
2022/08/23 01:44:32;;;;;;;2.80;2.53;;;22.70;99.90;;;;;;6181237;28;87956;-64
2022/08/23 01:47:34;;;;;;;3.00;2.80;;;22.70;99.90;;;;;;6195981;28;89130;-64
2022/08/23 01:50:36;;;;;;;3.40;3.10;;;22.70;99.90;;;;;;6203890;28;89089;-64
2022/08/23 01:53:39;;;;;;;3.60;3.00;;;22.70;99.90;;;;;;6190837;28;88424;-64
2022/08/23 01:56:42;;;;;;;2.88;2.60;;;22.70;99.90;;;;;;6193531;28;88898;-65
2022/08/23 01:59:44;;;;;;;3.17;2.88;;;22.70;99.90;;;;;;6186167;28;89433;-64
2022/08/23 02:02:47;;;;;;;2.65;2.45;;;22.70;99.90;;;;;;6200363;28;90341;-64
2022/08/23 02:05:49;;;;;;;2.80;2.60;;;22.70;99.90;;;;;;6205106;28;88110;-64
2022/08/23 02:12:11;;;;;;;3.05;2.78;;;22.70;99.90;;;;;;6200651;28;88731;-64
2022/08/23 02:15:14;;;;;;;3.05;2.80;;;22.70;99.90;;;;;;6193979;28;89128;-64
2022/08/23 02:18:18;;;;;;;3.35;3.05;;;22.70;99.90;;;;;;6200935;28;89451;-64
2022/08/23 02:21:20;;;;;;;3.25;2.80;;;22.70;99.90;;;;;;6192947;28;88263;-65
2022/08/23 02:24:24;;;;;;;3.10;2.80;;;22.70;99.90;;;;;;6191357;28;88693;-64
2022/08/23 02:27:28;;;;;;;3.17;2.88;;;22.70;99.90;;;;;;6203268;28;89219;-64
2022/08/23 02:30:30;;;;;;;3.00;2.80;;;22.70;99.90;;;;;;6197630;28;89032;-64
2022/08/23 02:33:32;;;;;;;3.30;3.00;;;22.70;99.90;;;;;;6197299;28;90040;-65
2022/08/23 02:36:34;;;;;;;3.22;3.00;;;22.70;99.90;;;;;;6198944;28;89066;-64
2022/08/23 02:39:36;;;;;;;3.30;3.00;;;22.70;99.90;;;;;;6203138;28;88861;-64
2022/08/23 02:42:40;;;;;;;3.83;2.88;;;22.70;99.90;;;;;;6197302;28;87640;-64
2022/08/23 02:45:42;;;;;;;3.75;2.80;;;22.70;99.90;;;;;;6195374;28;89114;-64
2022/08/23 02:48:44;;;;;;;3.55;3.25;;;22.70;99.90;;;;;;6190528;28;89151;-65
2022/08/23 02:51:47;;;;;;;2.78;2.58;;;22.70;99.90;;;;;;6206561;28;89377;-65
2022/08/23 02:54:49;;;;;;;3.30;3.00;;;22.70;99.90;;;;;;6204161;28;88415;-65
2022/08/23 02:57:52;;;;;;;4.15;2.70;;;22.70;99.90;;;;;;6184762;28;89125;-65
2022/08/23 03:00:54;;;;;;;3.80;3.38;;;22.70;99.90;;;;;;6206760;28;89390;-65
2022/08/23 03:03:57;;;;;;;3.30;3.00;;;22.70;99.90;;;;;;6199585;28;90004;-64
2022/08/23 03:06:59;;;;;;;3.08;2.85;;;22.70;99.90;;;;;;6207266;28;89124;-64
2022/08/23 03:10:01;;;;;;;2.97;2.78;;;22.70;99.90;;;;;;6187908;28;89161;-65
2022/08/23 03:13:05;;;;;;;3.63;2.92;;;22.70;99.90;;;;;;6194825;28;89512;-64
2022/08/23 03:16:08;;;;;;;3.13;2.90;;;22.70;99.90;;;;;;6196079;28;89035;-64
2022/08/23 03:19:10;;;;;;;3.20;2.90;;;22.70;99.90;;;;;;6195346;28;90121;-65
2022/08/23 03:22:12;;;;;;;4.00;2.60;;;22.70;99.90;;;;;;6194115;28;89114;-64
2022/08/23 03:25:14;;;;;;;3.25;2.95;;;22.70;99.90;;;;;;6207743;28;88407;-64
2022/08/23 03:28:18;;;;;;;4.28;2.53;;;22.60;99.90;;;;;;6207216;28;89145;-64
2022/08/23 03:31:19;;;;;;;2.78;2.58;;;22.70;99.90;;;;;;6188187;28;89157;-64
2022/08/23 03:34:21;;;;;;;3.10;2.80;;;22.70;99.90;;;;;;6207719;28;90028;-64
2022/08/23 03:37:24;;;;;;;3.13;2.83;;;22.70;99.90;;;;;;6207400;28;89031;-64
2022/08/23 03:40:26;;;;;;;3.70;2.85;;;22.70;99.90;;;;;;6204133;28;89001;-64
2022/08/23 03:43:29;;;;;;;3.13;2.90;;;22.70;99.90;;;;;;6197494;28;90337;-64
2022/08/23 03:46:31;;;;;;;3.85;3.10;;;22.70;99.90;;;;;;6193982;28;89044;-64
2022/08/23 03:49:34;;;;;;;4.35;3.03;;;22.70;99.90;;;;;;6189922;28;88899;-64
2022/08/23 03:52:36;;;;;;;3.30;2.97;;;22.70;99.90;;;;;;6202253;28;89318;-65
2022/08/23 03:55:38;;;;;;;3.65;3.08;;;22.70;99.90;;;;;;6187375;28;88227;-64
2022/08/23 03:58:41;;;;;;;3.65;2.92;;;22.60;99.90;;;;;;6206233;28;89283;-64
2022/08/23 04:01:43;;;;;;;3.65;2.97;;;22.60;99.90;;;;;;6199608;28;88251;-64
2022/08/23 04:04:46;;;;;;;3.08;2.88;;;22.70;99.90;;;;;;6205325;28;89921;-64
2022/08/23 04:07:48;;;;;;;3.35;3.00;;;22.60;99.90;;;;;;6200694;28;89011;-64
2022/08/23 04:10:50;;;;;;;3.28;2.85;;;22.60;99.90;;;;;;6204233;28;89068;-64
2022/08/23 04:13:53;;;;;;;3.40;3.10;;;22.60;99.90;;;;;;6189834;28;89108;-65
2022/08/23 04:16:55;;;;;;;3.20;2.90;;;22.60;99.90;;;;;;6199005;28;89077;-64
2022/08/23 04:19:58;;;;;;;3.53;3.20;;;22.60;99.90;;;;;;6202313;28;89632;-64
2022/08/23 04:23:00;;;;;;;3.33;3.03;;;22.70;99.90;;;;;;6189447;28;88731;-64
2022/08/23 04:26:03;;;;;;;3.13;2.80;;;22.60;99.90;;;;;;6194487;28;88470;-64
2022/08/23 04:29:07;;;;;;;4.75;2.70;;;22.70;99.90;;;;;;6198333;28;88782;-64
2022/08/23 04:32:10;;;;;;;3.38;3.08;;;22.60;99.90;;;;;;6205750;28;89082;-64
2022/08/23 04:35:12;;;;;;;3.35;3.00;;;22.60;99.90;;;;;;6189492;28;89989;-64
2022/08/23 04:38:14;;;;;;;3.80;2.83;;;22.60;99.90;;;;;;6196734;28;89093;-64
2022/08/23 04:44:39;;;;;;;2.90;2.60;;;22.60;99.90;;;;;;6199183;28;87817;-64
2022/08/23 04:47:43;;;;;;;2.97;2.67;;;22.60;99.90;;;;;;6193919;28;89174;-64
2022/08/23 04:50:45;;;;;;;3.05;2.75;;;22.60;99.90;;;;;;6184358;28;88053;-64
2022/08/23 04:53:47;;;;;;;4.60;3.30;;;22.60;99.90;;;;;;6201262;28;89092;-64
2022/08/23 04:56:50;;;;;;;3.38;3.08;;;22.60;99.90;;;;;;6194005;28;88064;-63
2022/08/23 04:59:53;;;;;;;3.22;2.85;;;22.60;99.90;;;;;;6192636;28;88141;-64
2022/08/23 05:02:55;;;;;;;3.50;3.08;;;22.60;99.90;;;;;;6190264;28;89463;-64
2022/08/23 05:05:58;;;;;;;3.70;2.90;;;22.70;99.90;;;;;;6190917;28;90310;-64
2022/08/23 05:09:00;;;;;;;2.92;2.72;;;22.70;99.90;;;;;;6180945;28;88896;-64
2022/08/23 05:12:02;;;;;;;3.20;2.80;;;22.60;99.90;;;;;;6186292;28;89114;-64
2022/08/23 05:15:08;;;;;;;3.10;2.80;;;22.60;99.90;;;;;;6192411;28;89000;-64
2022/08/23 05:18:10;;;;;;;3.10;2.90;;;22.70;99.90;;;;;;6192749;28;89069;-64
2022/08/23 05:21:15;;;;;;;3.42;2.60;;;22.70;99.90;;;;;;6192580;28;89117;-64
2022/08/23 05:24:17;;;;;;;3.20;2.90;;;22.70;99.90;;;;;;6182198;28;87718;-65
2022/08/23 05:27:19;;;;;;;3.63;3.33;;;22.70;99.90;;;;;;6191953;28;88433;-64
2022/08/23 05:30:23;;;;;;;4.47;3.20;;;22.70;99.90;;;;;;6193429;28;89070;-64
2022/08/23 05:33:25;;;;;;;3.70;3.35;;;22.70;99.90;;;;;;6195999;28;87998;-65
2022/08/23 05:36:27;;;;;;;3.47;3.17;;;22.70;99.90;;;;;;6203525;28;90515;-64
2022/08/23 05:39:30;;;;;;;3.35;3.03;;;22.70;99.90;;;;;;6192750;28;89111;-64
2022/08/23 05:42:32;;;;;;;4.13;3.30;;;22.70;99.90;;;;;;6189064;28;89200;-64
2022/08/23 05:45:36;;;;;;;4.97;3.40;;;22.70;99.90;;;;;;6193671;28;89101;-64
2022/08/23 05:48:39;;;;;;;3.38;3.00;;;22.70;99.90;;;;;;6200875;28;89353;-64
2022/08/23 05:51:41;;;;;;;3.03;2.78;;;22.70;99.90;;;;;;6204530;28;89071;-64
2022/08/23 05:54:43;;;;;;;3.45;3.10;;;22.70;99.90;;;;;;6182768;28;89390;-64
2022/08/23 05:57:45;;;;;;;3.58;3.25;;;22.70;99.90;;;;;;6201535;28;88607;-64
2022/08/23 06:00:48;;;;;;;3.20;2.90;;;22.60;99.90;;;;;;6194967;28;89599;-64
2022/08/23 06:03:50;;;;;;;3.35;3.00;;;22.70;99.90;;;;;;6188459;28;89019;-64
2022/08/23 06:06:55;;;;;;;3.40;3.10;;;22.70;99.90;;;;;;6183856;28;89917;-64
2022/08/23 06:09:57;;;;;;;3.40;3.10;;;22.70;99.90;;;;;;6194385;28;89044;-64
2022/08/23 06:12:59;;;;;;;3.50;3.20;;;22.70;99.90;;;;;;6187082;28;89091;-64
2022/08/23 06:16:06;;;;;;;3.33;3.03;;;22.70;99.90;;;;;;6180660;28;89070;-64
2022/08/23 06:19:09;;;;;;;5.18;3.58;;;22.70;99.90;;;;;;6200641;28;89079;-64
2022/08/23 06:22:11;;;;;;;4.20;3.25;;;22.70;99.90;;;;;;6196308;28;87993;-64
2022/08/23 06:25:13;;;;;;;3.70;3.40;;;22.70;99.90;;;;;;6191189;28;89097;-64
2022/08/23 06:28:15;;;;;;;3.65;3.35;;;22.60;99.90;;;;;;6200253;28;88273;-63
2022/08/23 06:31:44;;;;;;;4.20;3.80;;;22.60;99.90;;;;;;6193989;28;89057;-64
2022/08/23 06:34:42;;;;;;;4.20;3.80;;;22.60;99.90;;;;;;6196857;28;88253;-64
2022/08/23 06:37:44;;;;;;;3.88;3.55;;;22.60;99.90;;;;;;6200741;28;90009;-63
2022/08/23 06:40:46;;;;;;;3.70;3.40;;;22.60;99.90;;;;;;6201731;28;89086;-64
2022/08/23 06:43:49;;;;;;;4.00;3.60;;;22.60;99.90;;;;;;6201545;28;89361;-64
2022/08/23 06:46:55;;;;;;;3.70;3.40;;;22.60;99.90;;;;;;6195096;28;89095;-64
2022/08/23 06:49:57;;;;;;;3.85;3.55;;;22.60;99.90;;;;;;6205523;28;89161;-64
2022/08/23 06:53:00;;;;;;;3.97;3.50;;;22.60;99.90;;;;;;6197578;28;88890;-64
2022/08/23 06:56:02;;;;;;;3.70;3.40;;;22.70;99.90;;;;;;6197407;28;89106;-64
2022/08/23 06:59:06;;;;;;;4.63;4.03;;;22.60;99.90;;;;;;6201682;28;89090;-64
2022/08/23 07:02:13;;;;;;;4.15;3.85;;;22.60;99.90;;;;;;6206757;28;89268;-64
2022/08/23 07:05:15;;;;;;;4.35;3.95;;;22.60;99.90;;;;;;6189207;28;89170;-64
2022/08/23 07:08:17;;;;;;;4.00;3.60;;;22.60;99.90;;;;;;6203045;28;89989;-64
2022/08/23 07:11:20;;;;;;;4.40;4.00;;;22.60;99.90;;;;;;6192884;28;89073;-64
2022/08/23 07:14:24;;;;;;;4.95;4.45;;;22.60;99.90;;;;;;6194143;28;89462;-64
2022/08/23 07:17:27;;;;;;;4.03;3.60;;;22.60;99.90;;;;;;6195609;28;89293;-64
2022/08/23 07:20:30;;;;;;;4.88;4.00;;;22.60;99.90;;;;;;6207214;28;89006;-64
2022/08/23 07:23:34;;;;;;;3.92;3.58;;;22.60;99.90;;;;;;6195106;28;89038;-64
2022/08/23 07:26:38;;;;;;;4.10;3.70;;;22.60;99.90;;;;;;6204253;28;87990;-64
2022/08/23 07:29:40;;;;;;;3.97;3.55;;;22.60;99.90;;;;;;6207146;28;88811;-64
2022/08/23 07:32:45;;;;;;;4.03;3.70;;;22.60;99.90;;;;;;6201066;28;89161;-64
2022/08/23 07:35:48;;;;;;;3.72;3.42;;;22.60;99.90;;;;;;6195211;28;89155;-64
2022/08/23 07:38:51;;;;;;;5.22;3.75;;;22.60;99.90;;;;;;6196208;28;89862;-64
2022/08/23 07:41:53;;;;;;;3.45;3.00;;;22.60;99.90;;;;;;6196782;28;89027;-64
2022/08/23 07:44:56;;;;;;;3.65;3.35;;;22.60;99.90;;;;;;6196407;28;89152;-64
2022/08/23 07:48:01;;;;;;;3.97;3.67;;;22.60;99.90;;;;;;6203899;28;89233;-64
2022/08/23 07:51:05;;;;;;;4.18;3.65;;;22.60;99.90;;;;;;6196048;28;89099;-64
2022/08/23 07:54:10;;;;;;;3.88;3.10;;;22.60;99.90;;;;;;6200486;28;89033;-63
2022/08/23 07:57:12;;;;;;;3.97;3.67;;;22.60;99.90;;;;;;6191990;28;89044;-64
2022/08/23 08:00:15;;;;;;;4.15;3.40;;;22.60;99.90;;;;;;6200327;28;88753;-64
2022/08/23 08:03:20;;;;;;;4.95;3.50;;;22.60;99.90;;;;;;6202288;28;89388;-64
2022/08/23 08:06:26;;;;;;;3.88;3.53;;;22.60;99.90;;;;;;6204553;28;89435;-64
2022/08/23 08:09:28;;;;;;;3.25;2.95;;;22.60;99.90;;;;;;6204800;28;90002;-64
2022/08/23 08:12:31;;;;;;;3.42;2.95;;;22.60;99.90;;;;;;6198525;28;89153;-64
2022/08/23 08:15:33;;;;;;;3.60;3.30;;;22.60;99.90;;;;;;6200654;28;88389;-64
2022/08/23 08:18:37;;;;;;;4.13;3.42;;;22.60;99.90;;;;;;6201295;28;88100;-64
2022/08/23 08:21:40;;;;;;;3.90;3.47;;;22.60;99.90;;;;;;6197940;28;89471;-64
2022/08/23 08:24:42;;;;;;;3.70;3.40;;;22.50;99.90;;;;;;6203111;28;89036;-64
2022/08/23 08:27:45;;;;;;;3.97;3.58;;;22.60;99.90;;;;;;6194935;28;89101;-64
2022/08/23 08:30:47;;;;;;;5.10;3.40;;;22.60;99.90;;;;;;6195670;28;88443;-64
2022/08/23 08:33:50;;;;;;;3.30;3.03;;;22.60;99.90;;;;;;6192912;28;89180;-64
2022/08/23 08:36:54;;;;;;;3.47;3.17;;;22.60;99.90;;;;;;6193261;28;89011;-64
2022/08/23 08:39:56;;;;;;;3.88;3.35;;;22.50;99.90;;;;;;6192405;28;90045;-64
2022/08/23 08:43:19;;;;;;;4.00;3.05;;;22.60;99.90;;;;;;6197699;28;88996;-64
2022/08/23 08:46:28;;;;;;;3.85;3.15;;;22.60;99.90;;;;;;6187186;28;88110;-64
2022/08/23 08:49:38;;;;;;;3.38;3.08;;;22.60;99.90;;;;;;6188738;28;89126;-64
2022/08/23 08:52:45;;;;;;;3.40;3.00;;;22.60;99.90;;;;;;6200347;28;88921;-64
2022/08/23 08:55:50;;;;;;;3.20;2.90;;;22.50;99.90;;;;;;6198209;28;89693;-64
2022/08/23 08:58:55;;;;;;;4.60;3.10;;;22.60;99.90;;;;;;6197474;28;89099;-64
2022/08/23 09:01:58;;;;;;;3.53;3.13;;;22.60;99.90;;;;;;6199796;28;87175;-64
2022/08/23 09:05:05;;;;;;;3.33;2.97;;;22.50;99.90;;;;;;6197034;28;89155;-64
2022/08/23 09:08:23;;;;;;;3.30;3.00;;;22.60;99.90;;;;;;6180687;28;89040;-64
2022/08/23 09:11:39;;;;;;;3.03;2.70;;;22.60;99.90;;;;;;6193982;28;90085;-64
2022/08/23 09:15:09;;;;;;;3.40;2.83;;;22.60;99.90;;;;;;6188877;28;89109;-64
2022/08/23 09:18:14;;;;;;;2.75;2.45;;;22.50;99.90;;;;;;6186645;28;89084;-64
2022/08/23 09:21:19;;;;;;;2.72;2.53;;;22.60;99.90;;;;;;6195278;28;88962;-64
2022/08/23 09:24:21;;;;;;;2.50;2.30;;;22.50;99.90;;;;;;6192113;28;88978;-64
2022/08/23 09:27:23;;;;;;;2.97;2.50;;;22.60;99.90;;;;;;6198855;28;89248;-64
2022/08/23 09:30:46;;;;;;;2.70;2.47;;;22.50;99.90;;;;;;6197847;28;89096;-64
2022/08/23 09:33:48;;;;;;;2.88;2.53;;;22.50;99.90;;;;;;6187530;28;88142;-64
2022/08/23 09:36:53;;;;;;;3.38;2.40;;;22.50;99.90;;;;;;6198897;28;87518;-64
2022/08/23 09:40:15;;;;;;;2.50;2.30;;;22.50;99.90;;;;;;6192995;28;89349;-64
2022/08/23 09:43:22;;;;;;;2.90;2.20;;;22.50;99.90;;;;;;6193313;28;90877;-64
2022/08/23 09:46:26;;;;;;;2.88;2.30;;;22.50;99.90;;;;;;6193595;28;89089;-64
2022/08/23 09:49:30;;;;;;;2.45;2.25;;;22.50;99.90;;;;;;6188119;28;89125;-64
2022/08/23 09:52:37;;;;;;;2.65;2.45;;;22.50;99.90;;;;;;6194456;28;89535;-64
2022/08/23 09:55:41;;;;;;;2.50;2.30;;;22.50;99.90;;;;;;6198755;28;89561;-66
2022/08/23 09:58:49;;;;;;;2.65;2.42;;;22.60;99.90;;;;;;6201142;28;89380;-66
2022/08/23 10:01:53;;;;;;;32.08;10.98;;;22.50;99.90;;;;;;6191431;28;87900;-66
2022/08/23 10:04:59;;;;;;;112.28;34.03;;;22.50;99.90;;;;;;6203700;28;88376;-66
2022/08/23 10:08:05;;;;;;;217.15;70.88;;;22.60;99.90;;;;;;6184745;28;88897;-66
2022/08/23 10:11:17;;;;;;;122.38;72.88;;;22.70;99.90;;;;;;6201028;28;87864;-66
2022/08/23 10:14:21;;;;;;;688.85;615.05;;;22.80;99.90;;;;;;6205667;28;90056;-67
2022/08/23 10:17:36;;;;;;;641.83;571.03;;;22.90;99.90;;;;;;6196321;28;89496;-66
2022/08/23 10:20:44;;;;;;;1159.43;852.63;;;23.00;99.90;;;;;;6203540;28;88885;-67
2022/08/23 10:23:56;;;;;;;464.42;378.40;;;23.10;99.90;;;;;;6195702;28;89694;-66
2022/08/23 10:30:51;;;;;;;208.68;158.43;;;23.40;99.90;;;;;;6195207;28;86994;-66
2022/08/23 10:34:04;;;;;;;166.40;131.00;;;23.60;99.90;;;;;;6197212;28;88941;-66
2022/08/23 10:37:31;;;;;;;185.45;143.43;;;23.70;99.90;;;;;;6185987;28;88617;-66
2022/08/23 10:40:42;;;;;;;134.57;105.65;;;23.80;99.90;;;;;;6193699;28;88951;-65
2022/08/23 10:43:54;;;;;;;107.72;86.65;;;23.80;99.90;;;;;;6183297;28;89105;-65
2022/08/23 10:47:16;;;;;;;74.53;56.60;;;23.80;99.90;;;;;;6190848;28;90040;-66
2022/08/23 10:50:21;;;;;;;55.95;44.17;;;23.70;99.90;;;;;;6191443;28;89080;-66
2022/08/23 10:53:31;;;;;;;43.78;35.15;;;23.70;99.90;;;;;;6206393;28;89158;-66
2022/08/23 10:56:35;;;;;;;34.83;27.23;;;23.60;99.90;;;;;;6195705;28;87799;-65
2022/08/23 10:59:38;;;;;;;29.80;24.33;;;23.60;99.90;;;;;;6204787;28;89065;-66
2022/08/23 11:02:48;;;;;;;23.17;18.98;;;23.50;99.90;;;;;;6197509;28;89075;-65
2022/08/23 11:06:44;;;;;;;20.67;16.40;;;23.40;99.90;;;;;;6197585;28;89222;-66
2022/08/23 11:09:58;;;;;;;16.55;13.90;;;23.40;99.90;;;;;;6197252;28;86373;-66
2022/08/23 11:13:06;;;;;;;12.65;10.38;;;23.30;99.90;;;;;;6195391;28;87875;-66
2022/08/23 11:16:15;;;;;;;12.07;10.40;;;23.30;99.90;;;;;;6193374;28;88958;-66
2022/08/23 11:19:47;;;;;;;10.25;8.40;;;23.30;99.90;;;;;;6193953;28;90016;-66
2022/08/23 11:23:13;;;;;;;7.07;6.28;;;23.30;99.90;;;;;;6191448;28;88295;-66
2022/08/23 11:27:03;;;;;;;6.18;5.57;;;23.20;99.90;;;;;;6198533;28;89413;-66
2022/08/23 11:30:42;;;;;;;5.47;4.93;;;23.20;99.90;;;;;;6172708;28;89046;-66
2022/08/23 11:33:50;;;;;;;4.43;3.65;;;23.20;99.90;;;;;;6175955;28;89720;-66
2022/08/23 11:37:28;;;;;;;8.05;4.05;;;23.10;99.90;;;;;;6196482;28;89614;-64
2022/08/23 11:40:57;;;;;;;4.28;3.63;;;23.10;99.90;;;;;;6195479;28;88047;-65
2022/08/23 11:44:26;;;;;;;5.63;4.13;;;23.10;99.90;;;;;;6197357;28;88285;-66
2022/08/23 11:47:38;;;;;;;3.50;2.97;;;23.10;99.90;;;;;;6199105;28;89096;-66
2022/08/23 11:51:13;;;;;;;3.65;3.35;;;23.00;99.90;;;;;;6192307;28;89043;-66
2022/08/23 11:54:29;;;;;;;6.18;3.90;;;23.00;99.90;;;;;;6193034;28;89911;-65
2022/08/23 11:57:48;;;;;;;4.57;3.40;;;23.00;99.90;;;;;;6206083;28;89130;-66
2022/08/23 12:01:04;;;;;;;3.42;3.13;;;23.00;99.90;;;;;;6195457;28;89086;-66
2022/08/23 12:04:09;;;;;;;5.03;3.45;;;23.00;99.90;;;;;;6200407;28;87915;-66
2022/08/23 12:07:13;;;;;;;7.03;3.92;;;23.00;99.90;;;;;;6206247;28;89485;-66
2022/08/23 12:10:16;;;;;;;11.40;4.72;;;23.00;99.90;;;;;;6204394;28;88146;-66
2022/08/23 12:13:46;;;;;;;15.00;5.38;;;23.00;99.90;;;;;;6180790;28;89070;-66
2022/08/23 12:16:48;;;;;;;9.70;4.05;;;23.00;99.90;;;;;;6201016;28;87296;-66
2022/08/23 12:19:54;;;;;;;3.08;2.40;;;23.00;99.90;;;;;;6195500;28;89329;-66
2022/08/23 12:23:14;;;;;;;4.68;2.80;;;22.90;99.90;;;;;;6192965;28;88970;-66
2022/08/23 12:26:26;;;;;;;6.30;3.42;;;22.90;99.90;;;;;;6180880;28;90175;-66
2022/08/23 12:29:37;;;;;;;6.65;3.28;;;22.90;99.90;;;;;;6182457;28;89119;-66
2022/08/23 12:32:46;;;;;;;3.70;2.70;;;22.90;99.90;;;;;;6195222;28;89165;-66
2022/08/23 12:35:53;;;;;;;2.47;2.03;;;22.90;99.90;;;;;;6204329;28;89010;-66
2022/08/23 12:39:02;;;;;;;7.70;2.85;;;22.90;99.90;;;;;;6193555;28;87973;-66
2022/08/23 12:42:09;;;;;;;8.57;3.47;;;22.80;99.90;;;;;;6206438;28;89221;-66
2022/08/23 12:45:15;;;;;;;15.20;5.05;;;22.80;99.90;;;;;;6181815;28;89041;-66
2022/08/23 12:48:19;;;;;;;11.02;4.95;;;22.80;99.90;;;;;;6192067;28;88481;-66
2022/08/23 12:51:21;;;;;;;4.60;2.72;;;22.80;99.90;;;;;;6197291;28;89368;-66
2022/08/23 12:54:37;;;;;;;7.32;3.80;;;22.80;99.90;;;;;;6194397;28;88518;-66
2022/08/23 12:57:42;;;;;;;3.45;2.20;;;22.80;99.90;;;;;;6199088;28;89872;-66
2022/08/23 13:00:52;;;;;;;2.03;1.70;;;22.70;99.90;;;;;;6197570;28;89084;-66
2022/08/23 13:04:00;;;;;;;5.88;2.55;;;22.80;99.90;;;;;;6198009;28;89091;-66
2022/08/23 13:07:05;;;;;;;5.35;3.22;;;22.80;99.90;;;;;;6205812;28;89384;-66
2022/08/23 13:10:10;;;;;;;4.20;2.67;;;22.70;99.90;;;;;;6203434;28;89098;-66
2022/08/23 13:13:15;;;;;;;3.55;2.38;;;22.70;99.90;;;;;;6192565;28;88912;-66
2022/08/23 13:16:27;;;;;;;3.15;2.70;;;22.80;99.90;;;;;;6183264;28;88792;-66
2022/08/23 13:19:32;;;;;;;3.05;2.75;;;22.70;99.90;;;;;;6191867;28;88336;-66
2022/08/23 13:22:35;;;;;;;4.00;3.55;;;22.80;99.90;;;;;;6192058;28;89067;-66
2022/08/23 13:25:41;;;;;;;5.85;3.70;;;22.70;99.90;;;;;;6193056;28;87964;-66
2022/08/23 13:29:01;;;;;;;4.38;3.83;;;22.70;99.90;;;;;;6187477;28;90367;-66
2022/08/23 13:32:05;;;;;;;6.28;4.10;;;22.70;99.90;;;;;;6182381;28;87888;-66
2022/08/23 13:35:37;;;;;;;4.80;4.00;;;22.70;99.90;;;;;;6194221;28;87881;-66
2022/08/23 13:38:40;;;;;;;4.65;4.15;;;22.70;99.90;;;;;;6145966;28;89320;-66
2022/08/23 13:41:43;;;;;;;4.18;3.88;;;22.60;99.90;;;;;;6201572;28;88878;-66
2022/08/23 13:44:45;;;;;;;6.18;4.13;;;22.60;99.90;;;;;;6184651;28;89020;-66
2022/08/23 13:47:50;;;;;;;4.82;4.32;;;22.60;99.90;;;;;;6193758;28;89064;-66
2022/08/23 13:50:53;;;;;;;4.70;4.20;;;22.60;99.90;;;;;;6193919;28;87251;-66
2022/08/23 13:53:57;;;;;;;5.10;4.60;;;22.60;99.90;;;;;;6193819;28;89108;-66
2022/08/23 13:57:03;;;;;;;4.45;4.03;;;22.50;99.90;;;;;;6197584;28;88986;-66
2022/08/23 14:00:08;;;;;;;4.60;4.20;;;22.60;99.90;;;;;;6196290;28;90551;-67
2022/08/23 14:03:10;;;;;;;4.50;4.10;;;22.50;99.90;;;;;;6197142;28;88781;-66
2022/08/23 14:06:12;;;;;;;5.13;4.18;;;22.60;99.90;;;;;;6190634;28;89451;-66
2022/08/23 14:09:15;;;;;;;4.72;4.30;;;22.50;99.90;;;;;;6204396;28;89111;-66
2022/08/23 14:12:22;;;;;;;4.95;4.55;;;22.60;99.90;;;;;;6192022;28;88047;-66
2022/08/23 14:15:24;;;;;;;4.90;4.18;;;22.60;99.90;;;;;;6184635;28;88248;-66
2022/08/23 14:18:26;;;;;;;5.20;4.30;;;22.60;99.90;;;;;;6204835;28;89016;-66
2022/08/23 14:21:28;;;;;;;4.53;4.10;;;22.50;99.90;;;;;;6201414;28;89407;-66
2022/08/23 14:24:30;;;;;;;3.85;3.55;;;22.60;99.90;;;;;;6188793;28;87762;-66
2022/08/23 14:27:35;;;;;;;4.25;3.80;;;22.50;99.90;;;;;;6191355;28;89198;-66
2022/08/23 14:30:37;;;;;;;3.35;3.05;;;22.50;99.90;;;;;;6190186;28;90013;-66
2022/08/23 14:33:39;;;;;;;4.25;3.50;;;22.50;99.90;;;;;;6203690;28;89015;-66
2022/08/23 14:36:41;;;;;;;3.83;3.53;;;22.50;99.90;;;;;;6188133;28;87880;-66
2022/08/23 14:39:43;;;;;;;3.78;3.08;;;22.50;99.90;;;;;;6197335;28;89206;-66
2022/08/23 14:42:47;;;;;;;3.00;2.70;;;22.40;99.90;;;;;;6202352;28;89090;-66
2022/08/23 14:45:50;;;;;;;3.17;2.88;;;22.40;99.90;;;;;;6205385;28;89006;-66
2022/08/23 14:48:52;;;;;;;4.90;2.83;;;22.40;99.90;;;;;;6203942;28;89074;-66
2022/08/23 14:51:54;;;;;;;3.88;2.90;;;22.40;99.90;;;;;;6195378;28;88339;-66
2022/08/23 14:54:56;;;;;;;3.00;2.70;;;22.50;99.90;;;;;;6194801;28;89257;-66
2022/08/23 14:57:59;;;;;;;2.95;2.65;;;22.50;99.90;;;;;;6184317;28;89221;-66
2022/08/23 15:01:01;;;;;;;5.30;2.53;;;22.50;99.90;;;;;;6200066;28;90029;-66
2022/08/23 15:04:04;;;;;;;2.92;2.30;;;22.50;99.90;;;;;;6200820;28;87941;-66
2022/08/23 15:07:06;;;;;;;2.50;2.30;;;22.50;99.90;;;;;;6191445;28;89449;-66
2022/08/23 15:10:10;;;;;;;3.05;2.53;;;22.50;99.90;;;;;;6192394;28;89001;-66
2022/08/23 15:13:13;;;;;;;2.88;2.35;;;22.50;99.90;;;;;;6207725;28;88008;-66
2022/08/23 15:16:17;;;;;;;2.88;2.67;;;22.60;99.90;;;;;;6192419;28;87780;-65
2022/08/23 15:19:20;;;;;;;2.72;2.50;;;22.60;99.90;;;;;;6195085;28;88421;-66
2022/08/23 15:22:22;;;;;;;2.92;2.30;;;22.50;99.90;;;;;;6203246;28;89392;-66
2022/08/23 15:25:28;;;;;;;2.88;2.67;;;22.50;99.90;;;;;;6188642;28;88996;-66
2022/08/23 15:28:31;;;;;;;2.83;2.53;;;22.50;99.90;;;;;;6188122;28;88952;-66
2022/08/23 15:31:34;;;;;;;2.53;2.33;;;22.50;99.90;;;;;;6187722;28;89961;-66
2022/08/23 15:34:36;;;;;;;3.22;2.67;;;22.50;99.90;;;;;;6205916;28;89105;-65
2022/08/23 15:37:38;;;;;;;2.65;2.45;;;22.50;99.90;;;;;;6189681;28;87778;-65
2022/08/23 15:40:41;;;;;;;2.85;2.53;;;22.50;99.90;;;;;;6198498;28;89015;-66
2022/08/23 15:43:44;;;;;;;3.10;2.80;;;22.50;99.90;;;;;;6192042;28;89423;-65
2022/08/23 15:46:48;;;;;;;3.30;2.72;;;22.50;99.90;;;;;;6194644;28;87920;-65
2022/08/23 15:49:50;;;;;;;2.88;2.67;;;22.50;99.90;;;;;;6196283;28;89029;-65
2022/08/23 15:52:52;;;;;;;3.10;2.72;;;22.50;99.90;;;;;;6193361;28;88349;-65
2022/08/23 15:55:54;;;;;;;3.20;2.90;;;22.50;99.90;;;;;;6194768;28;88949;-65
2022/08/23 15:58:58;;;;;;;3.38;3.08;;;22.50;99.90;;;;;;6185235;28;89399;-66
2022/08/23 16:02:00;;;;;;;3.65;3.35;;;22.50;99.90;;;;;;6203386;28;89957;-66
2022/08/23 16:05:02;;;;;;;3.50;3.20;;;22.50;99.90;;;;;;6207511;28;89454;-66
2022/08/23 16:08:07;;;;;;;3.55;3.25;;;22.50;99.90;;;;;;6206571;28;91353;-66
2022/08/23 16:11:11;;;;;;;3.75;3.45;;;22.50;99.90;;;;;;6192946;28;87026;-66
2022/08/23 16:14:15;;;;;;;4.32;3.30;;;22.50;99.90;;;;;;6205110;28;90823;-66
2022/08/23 16:17:18;;;;;;;5.13;3.50;;;22.40;99.90;;;;;;6197992;28;89035;-66
2022/08/23 16:20:21;;;;;;;3.85;3.42;;;22.40;99.90;;;;;;6195909;28;89034;-66
2022/08/23 16:23:25;;;;;;;3.95;3.60;;;22.40;99.90;;;;;;6202403;28;88213;-66